N793VC WSSL-WSJC

Flight info

Callsign N793VC
Flight time N/A
Altitude 7000
Route LATA/CIRCUITS
Aircraft DA40/L-V/N

Departure

Time 2026-04-19 06:56
Airport Seletar Airport (WSSL)

Arrival

Time N/A
Airport WSJC
Time Latitude Longitude Altitude Speed Heading
2026-04-19 06:55 1.41815 103.86866 276 ft 78 kts 31°
2026-04-19 06:56 1.42272 103.87184 511 ft 81 kts 33°
2026-04-19 06:56 1.42787 103.87354 740 ft 83 kts 352°
2026-04-19 06:56 1.43275 103.87029 995 ft 84 kts 298°
2026-04-19 06:56 1.43379 103.86466 1553 ft 90 kts 254°
2026-04-19 06:57 1.43045 103.85863 1764 ft 96 kts 231°
2026-04-19 06:57 1.42476 103.85469 1753 ft 100 kts 211°
2026-04-19 06:57 1.41864 103.85074 1581 ft 110 kts 216°
2026-04-19 06:57 1.41256 103.84635 1467 ft 113 kts 216°
2026-04-19 06:58 1.40686 103.84196 1496 ft 96 kts 218°
2026-04-19 06:58 1.40191 103.83764 1460 ft 96 kts 222°
2026-04-19 06:58 1.39715 103.83332 1499 ft 93 kts 219°
2026-04-19 06:58 1.39180 103.82961 1491 ft 95 kts 204°
2026-04-19 06:59 1.38719 103.82516 1504 ft 98 kts 262°
2026-04-19 06:59 1.38913 103.81843 1491 ft 103 kts 287°
2026-04-19 06:59 1.39139 103.81199 1672 ft 95 kts 284°
2026-04-19 06:59 1.39342 103.80549 1792 ft 96 kts 283°
2026-04-19 07:00 1.39514 103.79916 1973 ft 92 kts 280°
2026-04-19 07:00 1.39606 103.79306 2186 ft 87 kts 272°
2026-04-19 07:00 1.39482 103.78740 2362 ft 87 kts 233°
2026-04-19 07:00 1.38972 103.78455 2555 ft 83 kts 190°
2026-04-19 07:01 1.38392 103.78449 2716 ft 85 kts 173°
2026-04-19 07:01 1.37817 103.78531 2918 ft 82 kts 163°
2026-04-19 07:01 1.37410 103.78933 3066 ft 84 kts 121°
2026-04-19 07:01 1.37126 103.79423 3246 ft 83 kts 115°
2026-04-19 07:02 1.36837 103.79929 3426 ft 81 kts 117°
2026-04-19 07:02 1.36805 103.80473 3578 ft 81 kts 65°
2026-04-19 07:02 1.37207 103.80848 3726 ft 84 kts 20°
2026-04-19 07:02 1.37771 103.80819 3894 ft 83 kts 330°
2026-04-19 07:03 1.38212 103.80435 4038 ft 85 kts 316°
2026-04-19 07:03 1.38624 103.80009 4193 ft 85 kts 313°
2026-04-19 07:03 1.39006 103.79571 4364 ft 83 kts 312°
2026-04-19 07:03 1.39386 103.79131 4511 ft 84 kts 309°
2026-04-19 07:04 1.39775 103.78682 4640 ft 86 kts 317°
2026-04-19 07:04 1.40315 103.78497 4776 ft 84 kts 11°
2026-04-19 07:04 1.40809 103.78808 4908 ft 85 kts 43°
2026-04-19 07:04 1.41228 103.79206 5060 ft 84 kts 42°
2026-04-19 07:05 1.41656 103.79595 5200 ft 83 kts 40°
2026-04-19 07:05 1.42089 103.79979 5335 ft 83 kts 42°
2026-04-19 07:05 1.42511 103.80381 5451 ft 86 kts 43°
2026-04-19 07:05 1.42946 103.80795 5573 ft 86 kts 42°
2026-04-19 07:06 1.43384 103.81203 5668 ft 87 kts 38°
2026-04-19 07:06 1.43812 103.81637 5798 ft 86 kts 46°
2026-04-19 07:06 1.44223 103.82082 5910 ft 88 kts 46°
2026-04-19 07:06 1.44570 103.82588 6009 ft 92 kts 76°
2026-04-19 07:07 1.44443 103.83177 6167 ft 91 kts 130°
2026-04-19 07:07 1.43997 103.83632 6301 ft 92 kts 133°
2026-04-19 07:07 1.43547 103.84084 6451 ft 90 kts 135°
2026-04-19 07:07 1.43095 103.84527 6566 ft 93 kts 135°
2026-04-19 07:08 1.42644 103.84975 6725 ft 91 kts 135°
2026-04-19 07:08 1.42173 103.85396 6865 ft 91 kts 139°
2026-04-19 07:08 1.41703 103.85809 7007 ft 88 kts 136°
2026-04-19 07:08 1.41199 103.86179 7087 ft 93 kts 164°
2026-04-19 07:09 1.40615 103.86054 7229 ft 87 kts 219°
2026-04-19 07:09 1.40318 103.85525 7298 ft 90 kts 255°
2026-04-19 07:09 1.40157 103.84927 7396 ft 90 kts 255°
2026-04-19 07:09 1.39992 103.84321 7486 ft 90 kts 255°
2026-04-19 07:10 1.39828 103.83726 7577 ft 87 kts 254°
2026-04-19 07:10 1.39656 103.83148 7646 ft 87 kts 253°
2026-04-19 07:10 1.39488 103.82564 7698 ft 88 kts 253°
2026-04-19 07:10 1.39311 103.81980 7764 ft 86 kts 251°
2026-04-19 07:11 1.39119 103.81405 7774 ft 90 kts 252°
2026-04-19 07:11 1.38931 103.80812 7821 ft 91 kts 253°
2026-04-19 07:11 1.38756 103.80205 7872 ft 90 kts 254°
2026-04-19 07:11 1.38598 103.79599 7907 ft 90 kts 256°
2026-04-19 07:12 1.38432 103.79010 7956 ft 86 kts 251°
2026-04-19 07:12 1.38240 103.78426 7900 ft 90 kts 254°
2026-04-19 07:12 1.38331 103.77829 7930 ft 90 kts 304°
2026-04-19 07:12 1.38743 103.77401 7934 ft 82 kts 315°
2026-04-19 07:13 1.39163 103.76989 7697 ft 91 kts 316°
2026-04-19 07:13 1.39613 103.76568 7532 ft 87 kts 323°
2026-04-19 07:13 1.40156 103.76657 7315 ft 91 kts 52°
2026-04-19 07:13 1.40404 103.77209 7148 ft 88 kts 70°
2026-04-19 07:14 1.40607 103.77823 6901 ft 96 kts 72°
2026-04-19 07:14 1.40827 103.78452 6708 ft 94 kts 69°
2026-04-19 07:14 1.41071 103.79068 6480 ft 97 kts 65°
2026-04-19 07:14 1.41332 103.79692 6271 ft 97 kts 75°
2026-04-19 07:15 1.41394 103.80349 6072 ft 95 kts 92°
2026-04-19 07:15 1.41375 103.80788 5924 ft 95 kts 92°
2026-04-19 07:15 1.41225 103.82068 5558 ft 90 kts 108°
2026-04-19 07:16 1.40542 103.82324 5276 ft 91 kts 198°
2026-04-19 07:16 1.39956 103.82102 5090 ft 90 kts 205°
2026-04-19 07:16 1.39402 103.81827 4922 ft 88 kts 208°
2026-04-19 07:16 1.39048 103.81620 4799 ft 88 kts 213°
2026-04-19 07:17 1.38628 103.81178 4618 ft 87 kts 233°
2026-04-19 07:17 1.38163 103.80854 4432 ft 85 kts 175°
2026-04-19 07:17 1.37815 103.81261 4203 ft 86 kts 79°
2026-04-19 07:17 1.38204 103.81716 3989 ft 88 kts 45°
2026-04-19 07:18 1.38544 103.82203 3817 ft 85 kts 60°
2026-04-19 07:18 1.38817 103.82725 3641 ft 85 kts 67°
2026-04-19 07:18 1.39054 103.83264 3449 ft 84 kts 64°
2026-04-19 07:18 1.39307 103.83792 3286 ft 83 kts 65°
2026-04-19 07:19 1.39544 103.84311 3106 ft 84 kts 66°
2026-04-19 07:19 1.39766 103.84847 2942 ft 83 kts 69°
2026-04-19 07:19 1.39990 103.85382 2784 ft 84 kts 69°
2026-04-19 07:19 1.40207 103.85922 2623 ft 84 kts 69°
2026-04-19 07:20 1.40498 103.86418 2483 ft 84 kts 39°
2026-04-19 07:20 1.41004 103.86701 2332 ft 86 kts 12°
2026-04-19 07:20 1.41583 103.86610 2218 ft 87 kts 324°
2026-04-19 07:20 1.41954 103.86145 2139 ft 86 kts 288°
2026-04-19 07:21 1.42020 103.85564 2054 ft 85 kts 262°
2026-04-19 07:21 1.41763 103.85051 2006 ft 83 kts 244°
2026-04-19 07:21 1.41277 103.84686 1860 ft 89 kts 208°
2026-04-19 07:21 1.40742 103.84435 1728 ft 88 kts 229°
2026-04-19 07:22 1.40228 103.84178 1642 ft 80 kts 176°
2026-04-19 07:22 1.39814 103.84511 1480 ft 82 kts 122°
2026-04-19 07:22 1.39566 103.85065 1144 ft 97 kts 91°
2026-04-19 07:22 1.39981 103.85580 910 ft 97 kts 16°
2026-04-19 07:23 1.40511 103.85974 595 ft 90 kts 27°
2026-04-19 07:23 1.41027 103.86319 94 ft 85 kts 44°
2026-04-19 07:23 1.41413 103.86582 52 ft 52 kts 32°
2026-04-19 07:23 1.41652 103.86737 48 ft 33 kts 33°
2026-04-19 07:24 1.41803 103.86835 48 ft 20 kts 32°
2026-04-19 07:24 1.41862 103.86874 48 ft 0 kts 33°